Главная страница
METAR-TAF:

METAR-TAF

Аэропорты :

Harriman-and-West Airport

North Adams, Массачусетс, США

широта: 42-41-50N, долгота: 073-10-13W, высота над уровнем моря: 199 м

Текущие метеонаблюдения

Эта сводка был подготовлена 15 минут назад, в 13:52 UTC
Ветер 20 Узел от западный с порывами до 27 Узел
Температура 7°C
Влажность 81%
Давление 984 hPa
Видимость: 4.8 км
Отдельные облака на высоте 2200 фута
Рассеянная облачность на высоте 2900 фута
Сплошная облачность на высоте 4700 фута
дождь

METAR: KAQW 171352Z AUTO 26020G27KT 3SM RA SCT022 BKN029 OVC047 07/04 A2905 RMK AO2 PK WND 28028/1319 SLP838 P0012 T00670039

Время: 10:07 (14:07 UTC)


TAF: отсутствует

Метеонаблюдения и прогнозы для более 4000 аэропортов (сводки METAR и TAF).

Имеющиеся станции представлены на карте желтыми и красными точками.

Чтобы увидеть название станции, наведите на нее мышь.

Затем щелкните, чтобы увидеть метеонаблюдения и метеопрогнозы.

Управление картой: чтобы увеличить масштаб, щелкните зеленые кнопки с черным крестиком; чтобы уменьшить масштаб, щелкните зеленую кнопку с тире; для просмотра соседних карт щелкайте зеленые стрелки.


METAR-TAF: